Time;durP1;ratioP1;P1;durP2;ratioP2;P2;SDS_P1;SDS_P2;PMS_P1;PMS_P2;Temp;Humidity;BMP_temperature;BMP_pressure;BME280_temperature;BME280_humidity;BME280_pressure;Samples;Min_cycle;Max_cycle;Signal;HPM_P1;HPM_P2
2022/11/27 00:01:55;;;;;;;25.90;14.15;;;;;;;9.97;63.58;99809.16;4486419;32;20145;-84
2022/11/27 00:04:20;;;;;;;32.75;14.98;;;;;;;10.01;63.36;99811.59;4486165;32;20098;-84
2022/11/27 00:06:46;;;;;;;29.45;14.45;;;;;;;10.10;63.08;99806.91;4486345;32;20085;-84
2022/11/27 00:09:13;;;;;;;27.65;14.38;;;;;;;9.96;63.34;99810.91;4471945;32;20135;-84
2022/11/27 00:11:39;;;;;;;28.40;14.55;;;;;;;9.66;64.57;99807.59;4486349;32;20072;-84
2022/11/27 00:14:05;;;;;;;29.75;14.38;;;;;;;10.00;63.51;99806.38;4486126;32;20137;-84
2022/11/27 00:16:31;;;;;;;29.30;14.05;;;;;;;9.96;63.53;99808.25;4471841;32;20558;-84
2022/11/27 00:18:57;;;;;;;28.50;14.43;;;;;;;9.77;64.21;99808.09;4471954;32;20097;-84
2022/11/27 00:21:28;;;;;;;27.73;13.93;;;;;;;9.73;64.35;99809.06;4471758;32;20080;-84
2022/11/27 00:23:55;;;;;;;26.48;14.15;;;;;;;9.92;63.87;99806.66;4471998;32;20081;-83
2022/11/27 00:26:21;;;;;;;29.87;15.03;;;;;;;9.81;63.96;99803.53;4471877;32;20169;-84
2022/11/27 00:28:47;;;;;;;30.12;14.70;;;;;;;9.83;63.98;99799.09;4486130;32;20156;-83
2022/11/27 00:31:26;;;;;;;28.45;13.82;;;;;;;9.99;63.42;99804.69;4485762;32;20144;-84
2022/11/27 00:33:55;;;;;;;28.60;13.73;;;;;;;10.03;63.19;99799.25;4487681;32;20084;-83
2022/11/27 00:36:21;;;;;;;31.00;13.75;;;;;;;9.96;63.46;99804.78;4473962;32;20524;-83
2022/11/27 00:38:47;;;;;;;29.83;13.93;;;;;;;10.16;62.77;99799.66;4473816;32;20103;-83
2022/11/27 00:41:24;;;;;;;27.67;14.25;;;;;;;10.13;62.77;99799.75;4488069;32;20133;-83
2022/11/27 00:43:50;;;;;;;25.27;13.07;;;;;;;10.24;62.46;99797.59;4488085;32;20119;-83
2022/11/27 00:46:17;;;;;;;27.20;13.20;;;;;;;10.29;62.31;99809.72;4488210;32;20452;-84
2022/11/27 00:48:44;;;;;;;23.08;12.23;;;;;;;10.33;62.21;99808.72;4488092;32;20471;-84
2022/11/27 00:51:12;;;;;;;30.23;13.88;;;;;;;10.37;62.12;99811.22;4473614;32;20119;-84
2022/11/27 00:53:38;;;;;;;24.65;12.57;;;;;;;10.39;62.11;99808.50;4488009;32;20099;-84
2022/11/27 00:56:04;;;;;;;29.65;14.02;;;;;;;10.36;62.09;99814.75;4487845;32;20101;-84
2022/11/27 00:58:29;;;;;;;29.17;13.65;;;;;;;10.38;61.91;99817.34;4487979;32;20092;-84
2022/11/27 01:00:56;;;;;;;27.80;13.00;;;;;;;10.39;61.87;99817.28;4473539;32;20454;-84
2022/11/27 01:03:23;;;;;;;26.42;12.98;;;;;;;10.37;61.94;99819.13;4487886;32;20093;-84
2022/11/27 01:05:48;;;;;;;26.05;13.05;;;;;;;10.31;62.00;99818.47;4487893;32;20131;-84
2022/11/27 01:08:14;;;;;;;26.87;13.68;;;;;;;10.37;61.96;99815.59;4487970;32;20085;-84
2022/11/27 01:10:39;;;;;;;28.45;13.85;;;;;;;10.32;61.92;99812.31;4487758;32;20128;-83
2022/11/27 01:13:04;;;;;;;28.05;14.25;;;;;;;10.39;61.81;99816.41;4473661;32;20366;-84
2022/11/27 01:15:30;;;;;;;26.75;13.15;;;;;;;10.26;62.09;99816.00;4487669;32;20134;-84
2022/11/27 01:17:55;;;;;;;27.40;14.05;;;;;;;10.05;62.56;99815.00;4487726;32;20099;-84
2022/11/27 01:20:21;;;;;;;28.67;13.65;;;;;;;10.18;62.07;99815.41;4487692;32;20111;-84
2022/11/27 01:22:46;;;;;;;26.70;14.20;;;;;;;9.79;63.07;99816.78;4487691;32;20559;-84
2022/11/27 01:25:11;;;;;;;27.85;14.20;;;;;;;10.03;62.33;99812.41;4487771;32;20119;-84
2022/11/27 01:27:37;;;;;;;27.95;13.82;;;;;;;9.93;62.45;99812.78;4487687;32;20330;-84
2022/11/27 01:30:03;;;;;;;26.33;12.75;;;;;;;9.96;62.33;99813.53;4487553;32;20088;-84
2022/11/27 01:32:28;;;;;;;28.12;14.87;;;;;;;10.13;61.90;99814.72;4487636;32;20431;-84
2022/11/27 01:34:54;;;;;;;26.60;13.65;;;;;;;10.14;61.87;99811.16;4487482;32;20104;-84
2022/11/27 01:37:19;;;;;;;28.20;14.18;;;;;;;9.84;62.53;99811.34;4473391;32;20151;-84
2022/11/27 01:39:45;;;;;;;26.35;13.65;;;;;;;9.77;62.93;99821.25;4487547;32;20133;-84
2022/11/27 01:42:10;;;;;;;25.80;13.30;;;;;;;9.68;63.19;99815.41;4487442;32;20102;-84
2022/11/27 01:44:36;;;;;;;27.10;13.70;;;;;;;9.82;62.85;99818.44;4472537;32;20161;-84
2022/11/27 01:47:08;;;;;;;27.70;13.95;;;;;;;9.96;62.42;99810.03;4487616;32;20084;-84
2022/11/27 01:49:44;;;;;;;26.37;13.10;;;;;;;10.07;62.04;99805.25;4473217;32;20085;-83
2022/11/27 01:52:20;;;;;;;26.30;13.35;;;;;;;10.07;62.05;99815.78;4473435;32;20077;-83
2022/11/27 01:55:17;;;;;;;27.75;13.85;;;;;;;9.75;62.91;99819.56;4473189;32;20122;-83
2022/11/27 01:57:46;;;;;;;29.50;15.23;;;;;;;9.83;62.82;99818.37;4487852;32;20125;-84
2022/11/27 02:00:14;;;;;;;25.75;12.02;;;;;;;10.02;62.27;99821.22;4460313;32;20163;-84
2022/11/27 02:02:43;;;;;;;29.08;14.05;;;;;;;9.96;62.47;99818.78;4473347;32;20072;-83
2022/11/27 02:05:11;;;;;;;27.05;14.02;;;;;;;10.00;62.31;99822.19;4487439;32;20104;-83
2022/11/27 02:07:36;;;;;;;;;;;;;;;10.03;62.23;99819.44;4473520;32;20100;-83
2022/11/27 02:10:03;;;;;;;27.60;13.93;;;;;;;10.08;62.00;99822.75;4487420;32;20016;-83
2022/11/27 02:12:49;;;;;;;28.77;13.55;;;;;;;9.78;62.74;99822.09;4487319;32;20493;-83
2022/11/27 02:15:34;;;;;;;28.87;13.43;;;;;;;9.80;62.73;99825.53;4473235;32;20292;-83
2022/11/27 02:18:12;;;;;;;27.00;12.80;;;;;;;9.83;62.70;99826.28;4460160;32;20091;-82
2022/11/27 02:20:56;;;;;;;26.70;13.27;;;;;;;9.83;62.75;99825.41;4473138;32;20076;-82
2022/11/27 02:23:46;;;;;;;26.85;13.52;;;;;;;9.96;62.36;99818.78;4473141;32;20554;-83
2022/11/27 02:26:53;;;;;;;26.83;13.05;;;;;;;10.04;62.13;99816.78;4473199;32;20749;-83
2022/11/27 02:29:21;;;;;;;27.40;12.80;;;;;;;9.91;62.25;99814.59;4472914;32;20100;-83
2022/11/27 02:32:12;;;;;;;28.10;13.50;;;;;;;9.93;62.17;99811.03;4487264;32;20108;-83
2022/11/27 02:34:55;;;;;;;27.60;13.18;;;;;;;9.76;62.69;99816.88;4473011;32;20436;-83
2022/11/27 02:37:38;;;;;;;27.45;13.27;;;;;;;9.65;62.97;99822.50;4473027;32;20108;-84
2022/11/27 02:40:09;;;;;;;28.60;13.32;;;;;;;9.55;63.27;99825.50;4487283;32;20115;-84
2022/11/27 02:42:41;;;;;;;25.30;12.30;;;;;;;9.73;62.67;99827.50;4473003;32;20465;-84
2022/11/27 02:45:12;;;;;;;26.60;13.62;;;;;;;9.84;62.36;99825.34;4459876;32;20540;-83
2022/11/27 02:47:40;;;;;;;26.85;13.32;;;;;;;9.77;62.50;99822.97;4473084;32;20105;-83
2022/11/27 02:50:09;;;;;;;26.60;12.85;;;;;;;9.79;62.44;99826.41;4472900;32;20185;-84
2022/11/27 02:52:35;;;;;;;28.35;13.55;;;;;;;9.70;62.62;99821.50;4473034;32;20474;-84
2022/11/27 02:55:04;;;;;;;28.05;13.75;;;;;;;9.51;63.16;99829.16;4472572;32;20171;-84
2022/11/27 02:57:30;;;;;;;27.73;13.75;;;;;;;9.54;62.98;99829.91;4472782;32;20134;-84
2022/11/27 02:59:56;;;;;;;28.30;14.02;;;;;;;9.23;63.60;99833.56;4472808;32;20164;-84
2022/11/27 03:02:38;;;;;;;24.85;12.73;;;;;;;9.33;63.37;99835.84;4487039;32;20159;-85
2022/11/27 03:05:05;;;;;;;26.30;13.30;;;;;;;9.53;62.81;99830.81;4487287;32;20110;-84
2022/11/27 03:07:32;;;;;;;28.90;14.77;;;;;;;9.38;63.11;99833.94;4472898;32;20105;-85
2022/11/27 03:10:02;;;;;;;25.40;12.80;;;;;;;9.50;62.76;99836.16;4472732;32;20399;-85
2022/11/27 03:12:28;;;;;;;27.02;13.48;;;;;;;9.56;62.61;99833.34;4472738;32;20454;-85
2022/11/27 03:14:53;;;;;;;26.67;13.27;;;;;;;9.28;63.44;99828.13;4486943;32;20072;-85
2022/11/27 03:17:25;;;;;;;27.40;13.57;;;;;;;8.93;64.55;99832.75;4472957;32;20104;-85
2022/11/27 03:19:57;;;;;;;31.92;14.48;;;;;;;9.35;63.22;99834.03;4487146;32;20084;-83
2022/11/27 03:22:25;;;;;;;30.25;14.48;;;;;;;9.28;63.26;99837.78;4472889;32;20570;-84
2022/11/27 03:24:51;;;;;;;27.73;13.38;;;;;;;8.11;66.80;99849.97;4486768;32;20107;-84
2022/11/27 03:27:20;;;;;;;30.62;13.95;;;;;;;8.97;64.40;99831.75;4472643;32;20152;-83
2022/11/27 03:29:57;;;;;;;30.15;14.75;;;;;;;8.75;65.26;99842.06;4472528;32;20357;-83
2022/11/27 03:32:23;;;;;;;29.50;14.02;;;;;;;8.70;65.37;99840.47;4486926;32;20523;-84
2022/11/27 03:34:48;;;;;;;31.40;14.02;;;;;;;8.72;65.17;99844.78;4471961;32;20118;-84
2022/11/27 03:37:14;;;;;;;34.00;14.15;;;;;;;8.88;64.45;99837.28;4472197;32;20131;-83
2022/11/27 03:39:40;;;;;;;29.15;14.48;;;;;;;8.74;64.76;99842.94;4472511;32;20134;-83
2022/11/27 03:42:29;;;;;;;31.52;14.80;;;;;;;8.35;65.90;99858.94;4472671;32;20132;-84
2022/11/27 03:45:10;;;;;;;30.30;14.60;;;;;;;8.53;65.35;99856.72;4472480;32;20387;-84
2022/11/27 03:47:51;;;;;;;31.17;13.95;;;;;;;8.38;65.79;99858.88;4472551;32;20104;-83
2022/11/27 03:50:23;;;;;;;29.77;14.77;;;;;;;8.37;66.00;99862.38;4472218;32;20104;-84
2022/11/27 03:53:04;;;;;;;29.10;14.27;;;;;;;8.25;66.57;99860.12;4486583;32;20502;-84
2022/11/27 03:55:42;;;;;;;29.90;13.93;;;;;;;8.37;66.30;99858.91;4472276;32;20088;-83
2022/11/27 03:58:14;;;;;;;26.90;13.15;;;;;;;8.68;65.20;99851.03;4486592;32;20093;-83
2022/11/27 04:00:41;;;;;;;32.15;13.90;;;;;;;8.62;65.35;99845.97;4472289;32;20101;-83
2022/11/27 04:03:11;;;;;;;30.80;14.57;;;;;;;8.74;64.81;99844.72;4472164;32;20110;-83
2022/11/27 04:05:37;;;;;;;28.38;14.00;;;;;;;8.27;66.18;99837.31;4486344;32;20128;-83
2022/11/27 04:08:02;;;;;;;31.73;14.87;;;;;;;8.25;65.96;99845.22;4487543;32;20111;-83
2022/11/27 04:10:28;;;;;;;32.33;14.93;;;;;;;8.41;65.53;99852.66;4488126;32;20155;-83
2022/11/27 04:12:53;;;;;;;30.67;14.60;;;;;;;8.60;64.83;99846.00;4488188;32;20161;-83
2022/11/27 04:15:19;;;;;;;32.17;14.95;;;;;;;8.51;65.01;99848.87;4488172;32;20352;-83
2022/11/27 04:17:44;;;;;;;27.87;14.55;;;;;;;8.48;65.16;99843.75;4488157;32;20100;-84
2022/11/27 04:20:12;;;;;;;28.73;14.25;;;;;;;8.55;64.92;99849.66;4488001;32;20115;-83
2022/11/27 04:22:37;;;;;;;31.60;14.82;;;;;;;8.83;64.27;99847.94;4473967;32;20462;-83
2022/11/27 04:25:03;;;;;;;27.35;13.52;;;;;;;8.74;64.42;99845.56;4487941;32;20093;-83
2022/11/27 04:27:28;;;;;;;29.25;14.18;;;;;;;8.55;64.69;99853.12;4488081;32;20108;-83
2022/11/27 04:29:54;;;;;;;28.85;13.88;;;;;;;8.77;64.26;99852.50;4488067;32;20119;-84
2022/11/27 04:32:19;;;;;;;30.90;13.98;;;;;;;8.43;65.32;99853.50;4473822;32;20111;-82
2022/11/27 04:34:44;;;;;;;30.40;13.70;;;;;;;8.65;64.53;99845.84;4487648;32;20349;-82
2022/11/27 04:37:10;;;;;;;29.05;13.45;;;;;;;8.42;65.05;99850.03;4488004;32;20111;-82
2022/11/27 04:39:35;;;;;;;29.20;14.80;;;;;;;8.65;64.56;99849.34;4473791;32;20346;-85
2022/11/27 04:42:01;;;;;;;28.58;14.13;;;;;;;8.49;65.29;99847.22;4488085;32;20085;-84
2022/11/27 04:44:26;;;;;;;30.33;14.02;;;;;;;8.70;64.32;99843.94;4473667;32;20093;-84
2022/11/27 04:46:51;;;;;;;28.87;13.98;;;;;;;8.65;64.50;99844.09;4488090;32;20092;-84
2022/11/27 04:49:17;;;;;;;31.15;13.98;;;;;;;8.65;64.77;99845.84;4487920;32;20394;-84
2022/11/27 04:51:42;;;;;;;31.77;14.32;;;;;;;8.70;64.47;99846.59;4487980;32;20389;-84
2022/11/27 04:54:08;;;;;;;29.90;13.55;;;;;;;8.63;64.77;99842.41;4473694;32;20177;-83
2022/11/27 04:56:33;;;;;;;29.27;13.48;;;;;;;8.91;63.76;99839.81;4487867;32;20164;-83
2022/11/27 04:58:58;;;;;;;28.30;14.63;;;;;;;8.89;63.61;99838.16;4473589;32;20124;-83
2022/11/27 05:01:24;;;;;;;30.80;14.45;;;;;;;8.79;63.75;99834.94;4487813;32;20128;-84
2022/11/27 05:03:49;;;;;;;29.52;14.40;;;;;;;8.99;63.36;99826.44;4487653;32;20102;-83
2022/11/27 05:06:15;;;;;;;32.90;14.98;;;;;;;8.90;63.54;99830.19;4473521;32;20151;-85
2022/11/27 05:08:40;;;;;;;28.83;14.25;;;;;;;9.05;63.20;99831.50;4487824;32;20092;-85
2022/11/27 05:11:09;;;;;;;30.50;14.35;;;;;;;8.84;63.85;99839.13;4487714;32;20103;-82
2022/11/27 05:13:34;;;;;;;29.77;15.45;;;;;;;8.68;64.48;99839.66;4473683;32;20110;-82
2022/11/27 05:16:00;;;;;;;30.45;14.30;;;;;;;9.00;63.38;99830.78;4487609;32;20116;-82
2022/11/27 05:18:26;;;;;;;33.47;16.10;;;;;;;8.91;63.80;99831.94;4473496;32;20097;-82
2022/11/27 05:20:59;;;;;;;29.48;14.80;;;;;;;8.49;65.28;99832.31;4487775;32;20153;-82
2022/11/27 05:23:25;;;;;;;32.58;16.00;;;;;;;8.79;64.42;99833.16;4487866;32;20126;-82
2022/11/27 05:25:50;;;;;;;30.45;14.90;;;;;;;8.97;63.93;99837.00;4473595;32;20130;-82
2022/11/27 05:28:16;;;;;;;30.50;14.45;;;;;;;8.93;64.02;99843.25;4487761;32;20348;-82
2022/11/27 05:30:41;;;;;;;31.52;15.07;;;;;;;9.03;63.67;99841.19;4487656;32;20103;-82
2022/11/27 05:33:07;;;;;;;29.98;15.43;;;;;;;8.95;63.75;99836.19;4484260;32;113661;-82
2022/11/27 05:35:32;;;;;;;33.20;15.75;;;;;;;8.92;64.08;99830.16;4487651;32;20123;-82
2022/11/27 05:37:58;;;;;;;36.03;16.05;;;;;;;9.11;63.68;99830.44;4487695;32;20124;-82
2022/11/27 05:40:23;;;;;;;31.60;15.68;;;;;;;9.12;63.75;99830.41;4487613;32;20111;-81
2022/11/27 05:42:48;;;;;;;32.47;15.73;;;;;;;8.69;64.78;99829.09;4487670;32;20127;-82
2022/11/27 05:45:14;;;;;;;32.67;15.25;;;;;;;9.11;63.98;99823.41;4487581;32;20413;-82
2022/11/27 05:47:39;;;;;;;37.80;18.48;;;;;;;9.21;63.72;99827.47;4487646;32;20435;-82
2022/11/27 05:50:07;;;;;;;39.75;17.65;;;;;;;8.88;64.49;99826.75;4487447;32;20127;-82
2022/11/27 05:52:33;;;;;;;;;;;;;;;8.97;64.56;99826.47;4488035;32;20107;-82
2022/11/27 05:54:58;;;;;;;38.92;18.37;;;;;;;8.94;64.62;99825.72;4487870;32;19996;-84
2022/11/27 05:57:23;;;;;;;41.22;19.00;;;;;;;8.93;64.85;99832.75;4473608;32;20119;-84
2022/11/27 05:59:49;;;;;;;42.38;18.80;;;;;;;9.20;64.08;99833.63;4487793;32;20360;-84
2022/11/27 06:02:14;;;;;;;37.72;17.77;;;;;;;9.14;64.15;99836.47;4487789;32;20322;-84
2022/11/27 06:04:40;;;;;;;43.97;17.95;;;;;;;9.28;63.61;99833.37;4487667;32;20141;-83
2022/11/27 06:07:05;;;;;;;37.08;16.90;;;;;;;8.92;64.87;99830.16;4473451;32;20096;-83
2022/11/27 06:09:31;;;;;;;41.05;18.17;;;;;;;9.13;64.46;99836.50;4487574;32;20081;-84
2022/11/27 06:11:56;;;;;;;40.08;17.60;;;;;;;9.04;64.87;99837.69;4487572;32;20095;-83
2022/11/27 06:14:22;;;;;;;38.55;18.55;;;;;;;9.14;64.42;99836.47;4487618;32;20092;-83
2022/11/27 06:16:47;;;;;;;41.67;18.67;;;;;;;8.83;64.84;99834.78;4473477;32;20091;-83
2022/11/27 06:19:13;;;;;;;39.20;17.42;;;;;;;9.24;63.97;99834.41;4487574;32;20356;-85
2022/11/27 06:21:38;;;;;;;37.65;17.35;;;;;;;9.37;63.70;99841.00;4487721;32;20198;-85
2022/11/27 06:24:04;;;;;;;44.30;19.62;;;;;;;9.44;63.37;99837.25;4487628;32;20107;-82
2022/11/27 06:26:31;;;;;;;43.00;18.45;;;;;;;9.52;63.25;99842.25;4487535;32;20115;-82
2022/11/27 06:28:58;;;;;;;40.85;17.40;;;;;;;9.47;63.23;99852.06;4487319;32;20088;-82
2022/11/27 06:31:27;;;;;;;40.85;18.80;;;;;;;9.12;64.30;99853.22;4472308;32;20489;-81
2022/11/27 06:33:53;;;;;;;41.03;18.62;;;;;;;9.16;64.13;99857.47;4487116;32;20093;-84
2022/11/27 06:36:20;;;;;;;41.33;17.55;;;;;;;9.41;63.41;99850.50;4473143;32;20092;-83
2022/11/27 06:38:46;;;;;;;38.78;17.52;;;;;;;9.47;63.22;99859.09;4473027;32;20450;-83
2022/11/27 06:41:15;;;;;;;41.58;18.23;;;;;;;9.38;63.28;99850.56;4487139;32;20084;-85
2022/11/27 06:43:40;;;;;;;41.58;18.50;;;;;;;9.36;63.53;99854.19;4487156;32;20448;-85
2022/11/27 06:46:08;;;;;;;38.63;16.77;;;;;;;9.47;63.17;99856.47;4473257;32;20127;-86
2022/11/27 06:48:34;;;;;;;37.50;17.58;;;;;;;9.30;63.56;99854.38;4487454;32;20114;-86
2022/11/27 06:51:00;;;;;;;40.47;18.65;;;;;;;9.14;64.14;99862.75;4486980;32;20073;-85
2022/11/27 06:53:26;;;;;;;42.72;18.17;;;;;;;9.32;63.55;99865.72;4487084;32;20088;-85
2022/11/27 06:55:51;;;;;;;42.33;19.33;;;;;;;9.27;63.76;99865.84;4487114;32;20144;-85
2022/11/27 06:58:17;;;;;;;40.28;17.85;;;;;;;9.00;64.58;99865.81;4472660;32;20129;-87
2022/11/27 07:00:42;;;;;;;38.33;17.58;;;;;;;8.85;65.02;99864.50;4472432;32;20111;-85
2022/11/27 07:03:07;;;;;;;39.78;17.52;;;;;;;9.31;63.62;99851.72;4486741;32;20088;-84
2022/11/27 07:05:33;;;;;;;41.80;17.95;;;;;;;9.26;63.87;99858.88;4487045;32;20099;-84
2022/11/27 07:07:59;;;;;;;40.47;17.65;;;;;;;9.12;64.27;99855.84;4472758;32;20084;-84
2022/11/27 07:10:24;;;;;;;38.65;17.23;;;;;;;9.37;63.54;99858.53;4472523;32;20115;-84
2022/11/27 07:12:50;;;;;;;39.08;18.65;;;;;;;9.57;63.01;99857.88;4472622;32;20146;-83
2022/11/27 07:15:15;;;;;;;41.67;17.73;;;;;;;9.45;63.32;99852.09;4487038;32;20101;-83
2022/11/27 07:17:40;;;;;;;41.88;17.90;;;;;;;9.53;63.09;99859.75;4487092;32;20076;-84
2022/11/27 07:20:06;;;;;;;48.35;19.70;;;;;;;9.46;63.35;99860.84;4486757;32;20099;-84
2022/11/27 07:22:32;;;;;;;50.33;19.98;;;;;;;9.01;64.62;99866.69;4486948;32;20096;-84
2022/11/27 07:24:57;;;;;;;45.78;18.33;;;;;;;9.12;64.45;99866.34;4486906;32;20079;-84
2022/11/27 07:27:23;;;;;;;49.88;20.23;;;;;;;9.26;63.90;99869.41;4486811;32;20137;-84
2022/11/27 07:29:48;;;;;;;52.92;21.23;;;;;;;9.13;64.52;99875.94;4486834;32;20108;-84
2022/11/27 07:32:14;;;;;;;48.63;20.67;;;;;;;8.96;64.79;99876.47;4486779;32;20139;-84
2022/11/27 07:34:39;;;;;;;50.35;20.92;;;;;;;9.12;64.31;99884.75;4486605;32;20110;-83
2022/11/27 07:37:04;;;;;;;46.72;19.23;;;;;;;9.24;64.07;99879.94;4472577;32;20092;-83
2022/11/27 07:39:30;;;;;;;51.30;19.00;;;;;;;9.27;64.04;99870.25;4486625;32;20125;-82
2022/11/27 07:41:55;;;;;;;50.53;18.40;;;;;;;9.37;63.73;99877.81;4485475;32;20076;-83
2022/11/27 07:44:21;;;;;;;45.78;18.23;;;;;;;9.24;63.93;99877.31;4486702;32;20081;-83
2022/11/27 07:46:46;;;;;;;53.53;21.48;;;;;;;8.74;65.08;99878.87;4472318;32;20081;-84
2022/11/27 07:49:11;;;;;;;51.42;19.17;;;;;;;8.99;64.62;99881.63;4459194;32;20110;-84
2022/11/27 07:51:37;;;;;;;48.03;18.67;;;;;;;8.79;65.38;99883.09;4486499;32;20348;-84
2022/11/27 07:54:02;;;;;;;45.38;19.12;;;;;;;8.62;66.05;99887.97;4486503;32;20390;-84
2022/11/27 07:56:29;;;;;;;49.40;20.12;;;;;;;9.15;64.43;99872.34;4486495;32;20111;-83
2022/11/27 07:58:55;;;;;;;46.35;18.87;;;;;;;8.68;65.84;99877.28;4486486;32;20148;-84
2022/11/27 08:01:21;;;;;;;54.00;19.90;;;;;;;8.77;65.15;99874.41;4472265;32;20123;-84
2022/11/27 08:03:46;;;;;;;51.58;21.45;;;;;;;8.78;65.36;99881.34;4486440;32;20114;-84
2022/11/27 08:06:17;;;;;;;51.60;19.77;;;;;;;9.16;64.47;99881.97;4486428;32;20110;-84
2022/11/27 08:08:42;;;;;;;51.20;20.83;;;;;;;8.95;65.07;99872.97;4486422;32;20194;-83
2022/11/27 08:11:16;;;;;;;52.50;21.23;;;;;;;8.69;65.84;99873.75;4486116;32;20092;-83
2022/11/27 08:13:42;;;;;;;52.03;19.85;;;;;;;8.93;65.30;99872.16;4472085;32;20609;-83
2022/11/27 08:16:07;;;;;;;49.25;20.88;;;;;;;9.01;65.05;99867.53;4458947;32;20072;-83
2022/11/27 08:18:32;;;;;;;45.92;17.05;;;;;;;9.17;64.45;99867.06;4486143;32;20124;-86
2022/11/27 08:21:01;;;;;;;46.92;18.80;;;;;;;8.86;65.45;99870.63;4485903;32;20143;-85
2022/11/27 08:23:26;;;;;;;42.88;18.27;;;;;;;8.49;65.70;99879.59;4471803;32;20164;-89
2022/11/27 08:25:51;;;;;;;42.70;16.42;;;;;;;8.95;64.60;99880.84;4486125;32;20077;-88
2022/11/27 08:28:17;;;;;;;37.22;14.87;;;;;;;8.83;65.24;99881.25;4485899;32;20084;-89
2022/11/27 08:30:42;;;;;;;32.20;12.48;;;;;;;9.26;63.89;99879.91;4485659;32;20077;-89
2022/11/27 08:33:09;;;;;;;35.65;14.02;;;;;;;9.23;63.36;99887.88;4486133;32;20080;-90
2022/11/27 08:35:34;;;;;;;35.72;15.20;;;;;;;9.13;63.30;99882.06;4485866;32;20088;-91
2022/11/27 08:38:00;;;;;;;36.80;14.65;;;;;;;9.15;63.11;99882.88;4471692;32;20077;-88
2022/11/27 08:40:25;;;;;;;36.25;15.02;;;;;;;9.28;62.83;99895.66;4471637;32;20096;-89
2022/11/27 08:42:50;;;;;;;33.85;13.73;;;;;;;9.41;62.49;99886.47;4485803;32;20084;-89
2022/11/27 08:45:16;;;;;;;33.95;12.48;;;;;;;9.10;63.09;99894.44;4485789;32;20124;-89
2022/11/27 08:47:42;;;;;;;32.85;13.65;;;;;;;9.50;61.77;99895.81;4471828;32;20069;-86
2022/11/27 08:50:08;;;;;;;32.10;13.95;;;;;;;9.66;61.36;99889.16;4485924;32;20145;-88
2022/11/27 08:52:33;;;;;;;30.92;12.57;;;;;;;9.78;61.22;99895.78;4486051;32;20451;-86
2022/11/27 08:54:59;;;;;;;31.30;12.57;;;;;;;9.80;61.15;99881.63;4488099;32;20137;-86
2022/11/27 08:57:24;;;;;;;30.35;12.95;;;;;;;9.70;61.36;99890.75;4474065;32;20081;-89
2022/11/27 08:59:49;;;;;;;32.28;12.63;;;;;;;9.86;61.01;99891.09;4471428;31;20132;-86
2022/11/27 09:02:15;;;;;;;34.45;14.13;;;;;;;10.07;60.03;99888.66;4489600;31;20150;-79
2022/11/27 09:04:40;;;;;;;32.85;12.85;;;;;;;10.03;60.15;99896.66;4489344;31;20123;-86
2022/11/27 09:07:06;;;;;;;34.00;15.00;;;;;;;10.08;60.05;99888.56;4479484;31;20084;-87
2022/11/27 09:09:31;;;;;;;35.85;13.88;;;;;;;10.18;59.98;99899.69;4490721;31;20435;-89
2022/11/27 09:11:56;;;;;;;37.97;14.87;;;;;;;9.98;60.35;99898.56;4499455;31;20104;-87
2022/11/27 09:14:22;;;;;;;42.47;15.73;;;;;;;10.15;60.02;99902.41;4488972;31;20155;-87
2022/11/27 09:16:47;;;;;;;43.60;16.55;;;;;;;9.61;61.82;99912.97;4495862;31;20152;-87
2022/11/27 09:19:13;;;;;;;47.67;18.92;;;;;;;9.55;62.00;99912.31;4464622;32;20155;-87
2022/11/27 09:21:38;;;;;;;45.92;17.58;;;;;;;9.80;61.48;99907.97;4482479;31;20096;-87
2022/11/27 09:24:04;;;;;;;41.35;16.20;;;;;;;9.82;61.42;99902.66;4488043;31;20131;-85
2022/11/27 09:26:30;;;;;;;43.53;16.48;;;;;;;9.84;61.32;99908.72;4483330;32;20088;-86
2022/11/27 09:28:57;;;;;;;42.83;18.15;;;;;;;9.55;62.28;99905.28;4492495;31;20096;-86
2022/11/27 09:31:22;;;;;;;40.80;16.37;;;;;;;9.29;63.27;99913.12;4477890;32;20095;-85
2022/11/27 09:33:48;;;;;;;45.38;18.25;;;;;;;9.77;62.01;99909.81;4482008;31;20215;-84
2022/11/27 09:36:16;;;;;;;41.08;17.27;;;;;;;9.78;61.91;99908.94;4473349;31;20230;-84
2022/11/27 09:38:42;;;;;;;42.88;16.98;;;;;;;9.58;62.40;99902.56;4467276;32;20100;-86
2022/11/27 09:41:10;;;;;;;42.60;17.08;;;;;;;9.56;62.53;99904.38;4485835;32;20114;-86
2022/11/27 09:43:51;;;;;;;42.60;17.37;;;;;;;9.64;62.03;99902.34;4495596;31;20084;-84
2022/11/27 09:46:44;;;;;;;47.42;19.05;;;;;;;9.81;61.50;99899.16;4473743;31;20248;-87
2022/11/27 09:49:28;;;;;;;50.22;20.05;;;;;;;9.51;62.39;99905.44;4492330;31;20130;-85
2022/11/27 09:52:21;;;;;;;44.33;17.67;;;;;;;9.88;61.46;99893.69;4482985;31;20130;-84
2022/11/27 09:54:53;;;;;;;49.25;19.55;;;;;;;10.02;61.24;99889.69;4475102;32;20092;-86
2022/11/27 09:57:26;;;;;;;46.17;19.35;;;;;;;10.15;61.08;99891.88;4466084;31;20084;-86
2022/11/27 09:59:52;;;;;;;48.47;18.48;;;;;;;9.80;61.68;99893.94;4473078;32;20101;-85
2022/11/27 10:02:24;;;;;;;48.50;18.42;;;;;;;10.04;61.12;99877.31;4485105;32;20444;-87
2022/11/27 10:04:49;;;;;;;46.10;18.05;;;;;;;10.19;60.77;99883.78;4479669;32;20096;-86
2022/11/27 10:07:24;;;;;;;47.15;18.92;;;;;;;10.20;60.87;99877.63;4493511;31;20095;-91
2022/11/27 10:10:07;;;;;;;47.42;18.23;;;;;;;10.24;60.65;99878.37;4487802;31;20108;-90
2022/11/27 10:12:53;;;;;;;46.70;18.40;;;;;;;10.15;60.86;99873.44;4484858;32;20135;-85
2022/11/27 10:15:31;;;;;;;46.33;18.77;;;;;;;10.31;60.66;99873.78;4411447;32;20494;-90
2022/11/27 10:18:30;;;;;;;46.95;18.67;;;;;;;10.29;60.54;99871.16;4391448;32;20116;-89
2022/11/27 10:21:18;;;;;;;54.50;19.17;;;;;;;10.06;60.93;99879.87;4413566;32;20161;-90
2022/11/27 10:24:01;;;;;;;50.92;20.10;;;;;;;10.08;61.10;99875.41;4408861;32;20093;-84
2022/11/27 10:26:32;;;;;;;50.78;19.55;;;;;;;10.02;61.29;99868.62;4402743;32;20133;-84
2022/11/27 10:29:13;;;;;;;53.33;20.08;;;;;;;10.03;61.51;99867.69;4412871;32;20097;-84
2022/11/27 10:31:56;;;;;;;49.17;18.83;;;;;;;10.23;60.93;99863.50;4396145;32;20099;-84
2022/11/27 10:34:54;;;;;;;52.80;20.50;;;;;;;10.24;60.83;99858.16;4403569;32;20696;-83
2022/11/27 10:37:25;;;;;;;55.78;20.77;;;;;;;10.29;60.88;99867.69;4410457;32;20094;-84
2022/11/27 10:40:02;;;;;;;50.22;19.33;;;;;;;10.25;61.06;99859.03;4394681;32;20078;-84
2022/11/27 10:42:42;;;;;;;51.47;21.05;;;;;;;10.16;61.05;99852.31;4403738;32;20074;-84
2022/11/27 10:45:23;;;;;;;53.90;20.55;;;;;;;10.01;61.04;99853.72;4399237;32;20507;-84
2022/11/27 10:47:48;;;;;;;54.78;20.85;;;;;;;9.85;61.79;99857.81;4420381;32;20090;-86
2022/11/27 10:50:15;;;;;;;61.47;23.52;;;;;;;9.92;61.72;99854.03;4407685;32;20547;-87
2022/11/27 10:53:02;;;;;;;60.90;20.93;;;;;;;9.56;63.01;99854.41;4462496;31;20119;-85
2022/11/27 10:55:50;;;;;;;65.57;22.80;;;;;;;9.68;62.83;99847.84;4474382;32;20104;-86
2022/11/27 10:58:44;;;;;;;57.30;20.77;;;;;;;9.83;62.43;99851.72;4482715;31;20143;-86
2022/11/27 11:01:12;;;;;;;62.25;21.95;;;;;;;9.21;64.37;99852.91;4492948;31;20401;-85
2022/11/27 11:03:38;;;;;;;64.25;23.67;;;;;;;9.54;63.47;99850.97;4473982;32;20452;-85
2022/11/27 11:06:06;;;;;;;61.25;21.85;;;;;;;9.40;63.99;99842.66;4483678;31;20096;-90
2022/11/27 11:08:32;;;;;;;;;;;;;;;9.38;64.10;99839.22;4474718;31;20170;-83
2022/11/27 11:10:58;;;;;;;;;;;;;;;9.15;64.95;99837.31;4475513;32;19988;-81
2022/11/27 11:13:26;;;;;;;;;;;;;;;9.30;64.69;99833.34;4495885;31;20035;-81
2022/11/27 11:15:58;;;;;;;;;;;;;;;9.07;65.51;99828.81;4472856;32;20358;-80
2022/11/27 11:18:26;;;;;;;;;;;;;;;9.41;64.32;99832.09;4484378;32;19984;-81
2022/11/27 11:21:01;;;;;;;;;;;;;;;9.42;64.32;99822.41;4484204;32;19994;-80
2022/11/27 11:23:29;;;;;;;;;;;;;;;9.79;63.36;99821.16;4479101;31;20373;-79
2022/11/27 11:25:55;;;;;;;;;;;;;;;9.83;63.14;99823.66;4473571;31;20039;-80
2022/11/27 11:28:20;;;;;;;;;;;;;;;9.82;63.11;99821.91;4482261;32;19972;-80
2022/11/27 11:30:59;;;;;;;;;;;;;;;9.84;62.85;99813.97;4476603;31;19971;-78
2022/11/27 11:33:24;;;;;;;;;;;;;;;9.60;63.47;99819.19;4475856;32;19992;-79
2022/11/27 11:35:51;;;;;;;;;;;;;;;9.95;62.84;99805.72;4482552;31;19991;-82